sensor_id;sensor_type;location;lat;lon;timestamp;temperature;humidity
31038;DHT22;17702;47.590;7.666;2022-11-25T00:00:09;9.10;99.90
31038;DHT22;17702;47.590;7.666;2022-11-25T00:02:34;9.20;99.90
31038;DHT22;17702;47.590;7.666;2022-11-25T00:05:00;9.10;99.90
31038;DHT22;17702;47.590;7.666;2022-11-25T00:07:25;9.10;99.90
31038;DHT22;17702;47.590;7.666;2022-11-25T00:09:50;9.20;99.90
31038;DHT22;17702;47.590;7.666;2022-11-25T00:12:16;9.20;99.90
31038;DHT22;17702;47.590;7.666;2022-11-25T00:14:42;9.20;99.90
31038;DHT22;17702;47.590;7.666;2022-11-25T00:17:07;9.20;99.90
31038;DHT22;17702;47.590;7.666;2022-11-25T00:19:33;9.20;99.90
31038;DHT22;17702;47.590;7.666;2022-11-25T00:21:58;9.20;99.90
31038;DHT22;17702;47.590;7.666;2022-11-25T00:24:24;9.20;99.90
31038;DHT22;17702;47.590;7.666;2022-11-25T00:26:49;9.20;99.90
31038;DHT22;17702;47.590;7.666;2022-11-25T00:29:14;9.10;99.90
31038;DHT22;17702;47.590;7.666;2022-11-25T00:31:40;9.10;99.90
31038;DHT22;17702;47.590;7.666;2022-11-25T00:34:06;9.00;99.90
31038;DHT22;17702;47.590;7.666;2022-11-25T00:36:36;9.00;99.90
31038;DHT22;17702;47.590;7.666;2022-11-25T00:41:30;9.00;99.90
31038;DHT22;17702;47.590;7.666;2022-11-25T00:44:15;8.90;99.90
31038;DHT22;17702;47.590;7.666;2022-11-25T00:46:59;9.00;99.90
31038;DHT22;17702;47.590;7.666;2022-11-25T00:49:25;9.00;99.90
31038;DHT22;17702;47.590;7.666;2022-11-25T00:51:51;8.90;99.90
31038;DHT22;17702;47.590;7.666;2022-11-25T00:54:16;9.00;99.90
31038;DHT22;17702;47.590;7.666;2022-11-25T00:56:42;9.00;99.90
31038;DHT22;17702;47.590;7.666;2022-11-25T00:59:07;9.00;99.90
31038;DHT22;17702;47.590;7.666;2022-11-25T01:01:33;9.00;99.90
31038;DHT22;17702;47.590;7.666;2022-11-25T01:03:59;8.90;99.90
31038;DHT22;17702;47.590;7.666;2022-11-25T01:06:24;8.90;99.90
31038;DHT22;17702;47.590;7.666;2022-11-25T01:08:50;8.90;99.90
31038;DHT22;17702;47.590;7.666;2022-11-25T01:11:16;8.90;99.90
31038;DHT22;17702;47.590;7.666;2022-11-25T01:13:42;8.90;99.90
31038;DHT22;17702;47.590;7.666;2022-11-25T01:16:09;8.90;99.90
31038;DHT22;17702;47.590;7.666;2022-11-25T01:18:35;9.00;99.90
31038;DHT22;17702;47.590;7.666;2022-11-25T01:21:07;9.00;99.90
31038;DHT22;17702;47.590;7.666;2022-11-25T01:23:33;8.90;99.90
31038;DHT22;17702;47.590;7.666;2022-11-25T01:26:02;8.90;99.90
31038;DHT22;17702;47.590;7.666;2022-11-25T01:28:30;8.90;99.90
31038;DHT22;17702;47.590;7.666;2022-11-25T01:31:03;9.00;99.90
31038;DHT22;17702;47.590;7.666;2022-11-25T01:33:29;8.90;99.90
31038;DHT22;17702;47.590;7.666;2022-11-25T01:36:00;8.80;99.90
31038;DHT22;17702;47.590;7.666;2022-11-25T01:38:27;8.80;99.90
31038;DHT22;17702;47.590;7.666;2022-11-25T01:40:52;8.80;99.90
31038;DHT22;17702;47.590;7.666;2022-11-25T01:43:17;8.90;99.90
31038;DHT22;17702;47.590;7.666;2022-11-25T01:45:43;9.00;99.90
31038;DHT22;17702;47.590;7.666;2022-11-25T01:48:13;8.90;99.90
31038;DHT22;17702;47.590;7.666;2022-11-25T01:50:41;8.90;99.90
31038;DHT22;17702;47.590;7.666;2022-11-25T01:53:06;8.90;99.90
31038;DHT22;17702;47.590;7.666;2022-11-25T01:55:33;8.90;99.90
31038;DHT22;17702;47.590;7.666;2022-11-25T01:58:02;8.90;99.90
31038;DHT22;17702;47.590;7.666;2022-11-25T02:00:29;9.00;99.90
31038;DHT22;17702;47.590;7.666;2022-11-25T02:02:55;9.00;99.90
31038;DHT22;17702;47.590;7.666;2022-11-25T02:05:24;9.00;99.90
31038;DHT22;17702;47.590;7.666;2022-11-25T02:07:51;9.00;99.90
31038;DHT22;17702;47.590;7.666;2022-11-25T02:10:20;9.00;99.90
31038;DHT22;17702;47.590;7.666;2022-11-25T02:12:46;9.00;99.90
31038;DHT22;17702;47.590;7.666;2022-11-25T02:15:13;8.90;99.20
31038;DHT22;17702;47.590;7.666;2022-11-25T02:17:39;8.90;99.50
31038;DHT22;17702;47.590;7.666;2022-11-25T02:25:09;8.90;99.20
31038;DHT22;17702;47.590;7.666;2022-11-25T02:27:34;8.80;99.30
31038;DHT22;17702;47.590;7.666;2022-11-25T02:30:00;8.80;99.20
31038;DHT22;17702;47.590;7.666;2022-11-25T02:32:25;8.80;99.20
31038;DHT22;17702;47.590;7.666;2022-11-25T02:34:51;8.80;99.30
31038;DHT22;17702;47.590;7.666;2022-11-25T02:37:17;8.80;99.80
31038;DHT22;17702;47.590;7.666;2022-11-25T02:39:43;8.70;99.80
31038;DHT22;17702;47.590;7.666;2022-11-25T02:42:10;8.70;99.90
31038;DHT22;17702;47.590;7.666;2022-11-25T02:44:36;8.80;99.80
31038;DHT22;17702;47.590;7.666;2022-11-25T02:47:01;8.80;99.90
31038;DHT22;17702;47.590;7.666;2022-11-25T02:49:27;8.70;99.90
31038;DHT22;17702;47.590;7.666;2022-11-25T02:51:52;8.80;99.90
31038;DHT22;17702;47.590;7.666;2022-11-25T02:54:18;8.80;99.90
31038;DHT22;17702;47.590;7.666;2022-11-25T02:56:43;8.70;99.90
31038;DHT22;17702;47.590;7.666;2022-11-25T02:59:09;8.70;99.90
31038;DHT22;17702;47.590;7.666;2022-11-25T03:01:35;8.70;99.90
31038;DHT22;17702;47.590;7.666;2022-11-25T03:04:01;8.80;99.90
31038;DHT22;17702;47.590;7.666;2022-11-25T03:06:27;8.80;99.90
31038;DHT22;17702;47.590;7.666;2022-11-25T03:08:52;8.80;99.90
31038;DHT22;17702;47.590;7.666;2022-11-25T03:11:18;8.80;99.90
31038;DHT22;17702;47.590;7.666;2022-11-25T03:13:43;8.70;99.90
31038;DHT22;17702;47.590;7.666;2022-11-25T03:16:09;8.70;99.90
31038;DHT22;17702;47.590;7.666;2022-11-25T03:18:34;8.70;99.90
31038;DHT22;17702;47.590;7.666;2022-11-25T03:21:00;8.70;99.80
31038;DHT22;17702;47.590;7.666;2022-11-25T03:23:25;8.60;99.90
31038;DHT22;17702;47.590;7.666;2022-11-25T03:25:51;8.70;99.90
31038;DHT22;17702;47.590;7.666;2022-11-25T03:28:16;8.60;99.90
31038;DHT22;17702;47.590;7.666;2022-11-25T03:30:42;8.70;99.90
31038;DHT22;17702;47.590;7.666;2022-11-25T03:33:07;8.60;99.60
31038;DHT22;17702;47.590;7.666;2022-11-25T03:35:33;8.60;99.90
31038;DHT22;17702;47.590;7.666;2022-11-25T03:37:58;8.50;99.90
31038;DHT22;17702;47.590;7.666;2022-11-25T03:40:24;8.50;99.90
31038;DHT22;17702;47.590;7.666;2022-11-25T03:42:49;8.50;99.90
31038;DHT22;17702;47.590;7.666;2022-11-25T03:45:15;8.40;99.90
31038;DHT22;17702;47.590;7.666;2022-11-25T03:47:41;8.40;99.90
31038;DHT22;17702;47.590;7.666;2022-11-25T03:50:07;8.40;99.90
31038;DHT22;17702;47.590;7.666;2022-11-25T03:52:33;8.40;99.90
31038;DHT22;17702;47.590;7.666;2022-11-25T03:54:58;8.50;99.90
31038;DHT22;17702;47.590;7.666;2022-11-25T03:57:24;8.50;99.90
31038;DHT22;17702;47.590;7.666;2022-11-25T03:59:49;8.50;99.90
31038;DHT22;17702;47.590;7.666;2022-11-25T04:02:15;8.50;99.90
31038;DHT22;17702;47.590;7.666;2022-11-25T04:04:41;8.50;99.90
31038;DHT22;17702;47.590;7.666;2022-11-25T04:07:06;8.40;99.90
31038;DHT22;17702;47.590;7.666;2022-11-25T04:09:32;8.40;99.90
31038;DHT22;17702;47.590;7.666;2022-11-25T04:11:57;8.30;99.90
31038;DHT22;17702;47.590;7.666;2022-11-25T04:14:42;8.30;99.90
31038;DHT22;17702;47.590;7.666;2022-11-25T04:17:07;8.30;99.90
31038;DHT22;17702;47.590;7.666;2022-11-25T04:19:33;8.20;99.90
31038;DHT22;17702;47.590;7.666;2022-11-25T04:21:58;8.20;99.90
31038;DHT22;17702;47.590;7.666;2022-11-25T04:24:25;8.30;99.90
31038;DHT22;17702;47.590;7.666;2022-11-25T04:26:51;8.30;99.90
31038;DHT22;17702;47.590;7.666;2022-11-25T04:29:16;8.30;99.90
31038;DHT22;17702;47.590;7.666;2022-11-25T04:31:42;8.30;99.90
31038;DHT22;17702;47.590;7.666;2022-11-25T04:34:07;8.20;99.90
31038;DHT22;17702;47.590;7.666;2022-11-25T04:36:33;8.10;99.90
31038;DHT22;17702;47.590;7.666;2022-11-25T04:38:58;8.20;99.90
31038;DHT22;17702;47.590;7.666;2022-11-25T04:41:24;8.10;99.90
31038;DHT22;17702;47.590;7.666;2022-11-25T04:43:49;8.10;99.90
31038;DHT22;17702;47.590;7.666;2022-11-25T04:46:15;8.20;99.90
31038;DHT22;17702;47.590;7.666;2022-11-25T04:48:41;8.20;99.90
31038;DHT22;17702;47.590;7.666;2022-11-25T04:51:07;8.20;99.90
31038;DHT22;17702;47.590;7.666;2022-11-25T04:53:32;8.20;99.90
31038;DHT22;17702;47.590;7.666;2022-11-25T04:55:58;8.30;99.90
31038;DHT22;17702;47.590;7.666;2022-11-25T04:58:23;8.30;99.90
31038;DHT22;17702;47.590;7.666;2022-11-25T05:01:07;8.30;99.90
31038;DHT22;17702;47.590;7.666;2022-11-25T05:03:33;8.30;99.90
31038;DHT22;17702;47.590;7.666;2022-11-25T05:05:58;8.30;99.90
31038;DHT22;17702;47.590;7.666;2022-11-25T05:08:24;8.20;99.90
31038;DHT22;17702;47.590;7.666;2022-11-25T05:10:49;8.30;99.90
31038;DHT22;17702;47.590;7.666;2022-11-25T05:13:15;8.30;99.90
31038;DHT22;17702;47.590;7.666;2022-11-25T05:15:40;8.30;99.90
31038;DHT22;17702;47.590;7.666;2022-11-25T05:18:06;8.30;99.90
31038;DHT22;17702;47.590;7.666;2022-11-25T05:20:31;8.40;99.90
31038;DHT22;17702;47.590;7.666;2022-11-25T05:22:57;8.40;99.90
31038;DHT22;17702;47.590;7.666;2022-11-25T05:25:22;8.50;99.90
31038;DHT22;17702;47.590;7.666;2022-11-25T05:27:49;8.50;99.90
31038;DHT22;17702;47.590;7.666;2022-11-25T05:30:14;8.60;99.90
31038;DHT22;17702;47.590;7.666;2022-11-25T05:32:40;8.60;99.90
31038;DHT22;17702;47.590;7.666;2022-11-25T05:35:05;8.60;99.90
31038;DHT22;17702;47.590;7.666;2022-11-25T05:37:31;8.60;99.90
31038;DHT22;17702;47.590;7.666;2022-11-25T05:39:56;8.60;99.90
31038;DHT22;17702;47.590;7.666;2022-11-25T05:42:22;8.60;99.90
31038;DHT22;17702;47.590;7.666;2022-11-25T05:44:47;8.70;99.90
31038;DHT22;17702;47.590;7.666;2022-11-25T05:47:13;8.60;99.90
31038;DHT22;17702;47.590;7.666;2022-11-25T05:49:38;8.60;99.90
31038;DHT22;17702;47.590;7.666;2022-11-25T05:52:04;8.60;99.90
31038;DHT22;17702;47.590;7.666;2022-11-25T05:54:29;8.60;99.90
31038;DHT22;17702;47.590;7.666;2022-11-25T05:56:55;8.50;99.90
31038;DHT22;17702;47.590;7.666;2022-11-25T05:59:20;8.60;99.90
31038;DHT22;17702;47.590;7.666;2022-11-25T06:01:46;8.60;99.90
31038;DHT22;17702;47.590;7.666;2022-11-25T06:04:11;8.60;99.90
31038;DHT22;17702;47.590;7.666;2022-11-25T06:06:37;8.60;99.90
31038;DHT22;17702;47.590;7.666;2022-11-25T06:09:03;8.50;99.90
31038;DHT22;17702;47.590;7.666;2022-11-25T06:11:28;8.60;99.90
31038;DHT22;17702;47.590;7.666;2022-11-25T06:13:57;8.60;99.90
31038;DHT22;17702;47.590;7.666;2022-11-25T06:16:23;8.60;99.90
31038;DHT22;17702;47.590;7.666;2022-11-25T06:18:49;8.60;99.90
31038;DHT22;17702;47.590;7.666;2022-11-25T06:21:14;8.50;99.90
31038;DHT22;17702;47.590;7.666;2022-11-25T06:23:40;8.50;99.90
31038;DHT22;17702;47.590;7.666;2022-11-25T06:26:07;8.50;99.90
31038;DHT22;17702;47.590;7.666;2022-11-25T06:28:34;8.50;99.90
31038;DHT22;17702;47.590;7.666;2022-11-25T06:31:06;8.50;99.90
31038;DHT22;17702;47.590;7.666;2022-11-25T06:33:32;8.50;99.90
31038;DHT22;17702;47.590;7.666;2022-11-25T06:35:57;8.50;99.90
31038;DHT22;17702;47.590;7.666;2022-11-25T06:38:23;8.40;99.90
31038;DHT22;17702;47.590;7.666;2022-11-25T06:40:49;8.40;99.90
31038;DHT22;17702;47.590;7.666;2022-11-25T06:43:14;8.30;99.90
31038;DHT22;17702;47.590;7.666;2022-11-25T06:45:40;8.30;99.90
31038;DHT22;17702;47.590;7.666;2022-11-25T06:48:05;8.30;99.90
31038;DHT22;17702;47.590;7.666;2022-11-25T06:50:30;8.50;99.90
31038;DHT22;17702;47.590;7.666;2022-11-25T06:52:56;8.40;99.90
31038;DHT22;17702;47.590;7.666;2022-11-25T06:55:21;8.50;99.90
31038;DHT22;17702;47.590;7.666;2022-11-25T06:57:47;8.50;99.90
31038;DHT22;17702;47.590;7.666;2022-11-25T07:00:12;8.50;99.90
31038;DHT22;17702;47.590;7.666;2022-11-25T07:02:38;8.50;99.90
31038;DHT22;17702;47.590;7.666;2022-11-25T07:05:04;8.50;99.90
31038;DHT22;17702;47.590;7.666;2022-11-25T07:07:29;8.50;99.90
31038;DHT22;17702;47.590;7.666;2022-11-25T07:09:55;8.50;99.90
31038;DHT22;17702;47.590;7.666;2022-11-25T07:12:20;8.50;99.90
31038;DHT22;17702;47.590;7.666;2022-11-25T07:14:48;10.30;99.90
31038;DHT22;17702;47.590;7.666;2022-11-25T07:17:14;10.60;98.10
31038;DHT22;17702;47.590;7.666;2022-11-25T07:19:39;10.30;98.60
31038;DHT22;17702;47.590;7.666;2022-11-25T07:22:05;10.00;99.90
31038;DHT22;17702;47.590;7.666;2022-11-25T07:24:31;9.70;99.90
31038;DHT22;17702;47.590;7.666;2022-11-25T07:26:57;9.40;99.90
31038;DHT22;17702;47.590;7.666;2022-11-25T07:29:23;9.30;99.90
31038;DHT22;17702;47.590;7.666;2022-11-25T07:31:49;9.20;99.90
31038;DHT22;17702;47.590;7.666;2022-11-25T07:34:16;9.10;99.90
31038;DHT22;17702;47.590;7.666;2022-11-25T07:36:50;8.90;99.90
31038;DHT22;17702;47.590;7.666;2022-11-25T07:39:17;8.80;99.90
31038;DHT22;17702;47.590;7.666;2022-11-25T07:41:43;8.70;99.90
31038;DHT22;17702;47.590;7.666;2022-11-25T07:44:10;8.70;99.90
31038;DHT22;17702;47.590;7.666;2022-11-25T07:46:36;8.70;99.90
31038;DHT22;17702;47.590;7.666;2022-11-25T07:49:03;8.70;99.90
31038;DHT22;17702;47.590;7.666;2022-11-25T07:51:33;8.70;99.90
31038;DHT22;17702;47.590;7.666;2022-11-25T07:53:59;8.70;99.90
31038;DHT22;17702;47.590;7.666;2022-11-25T07:56:25;8.60;99.90
31038;DHT22;17702;47.590;7.666;2022-11-25T07:58:51;8.70;99.90
31038;DHT22;17702;47.590;7.666;2022-11-25T08:01:17;8.70;99.90
31038;DHT22;17702;47.590;7.666;2022-11-25T08:03:43;8.60;99.90
31038;DHT22;17702;47.590;7.666;2022-11-25T08:06:10;8.70;99.90
31038;DHT22;17702;47.590;7.666;2022-11-25T08:08:36;8.60;99.90
31038;DHT22;17702;47.590;7.666;2022-11-25T08:11:08;8.60;99.90
31038;DHT22;17702;47.590;7.666;2022-11-25T08:13:34;8.70;99.90
31038;DHT22;17702;47.590;7.666;2022-11-25T08:16:00;8.60;99.90
31038;DHT22;17702;47.590;7.666;2022-11-25T08:18:25;8.60;99.90
31038;DHT22;17702;47.590;7.666;2022-11-25T08:20:51;8.60;99.90
31038;DHT22;17702;47.590;7.666;2022-11-25T08:23:16;8.60;99.90
31038;DHT22;17702;47.590;7.666;2022-11-25T08:25:42;8.60;99.90
31038;DHT22;17702;47.590;7.666;2022-11-25T08:28:08;8.70;99.90
31038;DHT22;17702;47.590;7.666;2022-11-25T08:30:34;8.70;99.90
31038;DHT22;17702;47.590;7.666;2022-11-25T08:32:59;8.70;99.90
31038;DHT22;17702;47.590;7.666;2022-11-25T08:35:25;8.80;99.90
31038;DHT22;17702;47.590;7.666;2022-11-25T08:37:51;8.80;99.90
31038;DHT22;17702;47.590;7.666;2022-11-25T08:40:16;8.80;99.90
31038;DHT22;17702;47.590;7.666;2022-11-25T08:42:42;8.90;99.90
31038;DHT22;17702;47.590;7.666;2022-11-25T08:45:07;8.80;99.90
31038;DHT22;17702;47.590;7.666;2022-11-25T08:47:33;8.80;99.90
31038;DHT22;17702;47.590;7.666;2022-11-25T08:49:59;8.90;99.90
31038;DHT22;17702;47.590;7.666;2022-11-25T08:52:24;8.90;99.90
31038;DHT22;17702;47.590;7.666;2022-11-25T08:54:50;8.90;99.90
31038;DHT22;17702;47.590;7.666;2022-11-25T08:57:16;8.80;99.90
31038;DHT22;17702;47.590;7.666;2022-11-25T08:59:41;8.90;99.90
31038;DHT22;17702;47.590;7.666;2022-11-25T09:02:07;9.00;99.90
31038;DHT22;17702;47.590;7.666;2022-11-25T09:04:33;9.00;99.90
31038;DHT22;17702;47.590;7.666;2022-11-25T09:06:59;9.00;99.90
31038;DHT22;17702;47.590;7.666;2022-11-25T09:09:25;9.10;99.90
31038;DHT22;17702;47.590;7.666;2022-11-25T09:11:50;9.00;99.90
31038;DHT22;17702;47.590;7.666;2022-11-25T09:14:16;9.10;99.90
31038;DHT22;17702;47.590;7.666;2022-11-25T09:16:41;9.10;99.90
31038;DHT22;17702;47.590;7.666;2022-11-25T09:19:07;9.30;99.90
31038;DHT22;17702;47.590;7.666;2022-11-25T09:21:32;9.30;99.90
31038;DHT22;17702;47.590;7.666;2022-11-25T09:23:58;9.40;99.90
31038;DHT22;17702;47.590;7.666;2022-11-25T09:26:28;9.40;99.90
31038;DHT22;17702;47.590;7.666;2022-11-25T09:28:54;9.50;99.90
31038;DHT22;17702;47.590;7.666;2022-11-25T09:31:20;9.40;99.90
31038;DHT22;17702;47.590;7.666;2022-11-25T09:33:45;9.40;99.90
31038;DHT22;17702;47.590;7.666;2022-11-25T09:36:11;9.40;99.90
31038;DHT22;17702;47.590;7.666;2022-11-25T09:38:37;9.40;99.90
31038;DHT22;17702;47.590;7.666;2022-11-25T09:51:39;9.50;99.90
31038;DHT22;17702;47.590;7.666;2022-11-25T09:54:20;9.60;99.90
31038;DHT22;17702;47.590;7.666;2022-11-25T09:56:55;9.60;99.90
31038;DHT22;17702;47.590;7.666;2022-11-25T09:59:27;9.50;99.90
31038;DHT22;17702;47.590;7.666;2022-11-25T10:02:02;9.50;99.90
31038;DHT22;17702;47.590;7.666;2022-11-25T10:04:37;9.50;99.90
31038;DHT22;17702;47.590;7.666;2022-11-25T10:07:07;9.60;99.90
31038;DHT22;17702;47.590;7.666;2022-11-25T10:09:34;9.70;99.90
31038;DHT22;17702;47.590;7.666;2022-11-25T10:12:02;9.70;99.90
31038;DHT22;17702;47.590;7.666;2022-11-25T10:17:00;9.70;99.90
31038;DHT22;17702;47.590;7.666;2022-11-25T10:24:47;9.70;99.90
31038;DHT22;17702;47.590;7.666;2022-11-25T10:33:12;9.70;99.90
31038;DHT22;17702;47.590;7.666;2022-11-25T10:35:42;9.70;99.90
31038;DHT22;17702;47.590;7.666;2022-11-25T10:38:14;9.80;99.90
31038;DHT22;17702;47.590;7.666;2022-11-25T10:40:43;9.90;99.90
31038;DHT22;17702;47.590;7.666;2022-11-25T10:43:11;9.90;99.90
31038;DHT22;17702;47.590;7.666;2022-11-25T10:45:39;10.00;99.90
31038;DHT22;17702;47.590;7.666;2022-11-25T10:48:21;10.00;99.90
31038;DHT22;17702;47.590;7.666;2022-11-25T10:50:53;10.10;99.90
31038;DHT22;17702;47.590;7.666;2022-11-25T10:53:20;10.10;99.90
31038;DHT22;17702;47.590;7.666;2022-11-25T11:00:50;10.20;99.90
31038;DHT22;17702;47.590;7.666;2022-11-25T11:03:25;10.20;99.90
31038;DHT22;17702;47.590;7.666;2022-11-25T11:05:52;10.40;99.90
31038;DHT22;17702;47.590;7.666;2022-11-25T11:08:25;10.40;99.90
31038;DHT22;17702;47.590;7.666;2022-11-25T11:13:35;10.50;99.90
31038;DHT22;17702;47.590;7.666;2022-11-25T11:16:01;10.40;99.90
31038;DHT22;17702;47.590;7.666;2022-11-25T11:20:54;10.50;99.90
31038;DHT22;17702;47.590;7.666;2022-11-25T11:23:20;10.40;99.90
31038;DHT22;17702;47.590;7.666;2022-11-25T11:25:53;10.40;99.90
31038;DHT22;17702;47.590;7.666;2022-11-25T11:30:54;10.40;99.90
31038;DHT22;17702;47.590;7.666;2022-11-25T11:33:32;10.40;99.90
31038;DHT22;17702;47.590;7.666;2022-11-25T11:36:09;10.40;99.90
31038;DHT22;17702;47.590;7.666;2022-11-25T11:39:27;10.40;99.90
31038;DHT22;17702;47.590;7.666;2022-11-25T11:41:29;10.30;99.90
31038;DHT22;17702;47.590;7.666;2022-11-25T11:46:26;10.30;99.90
31038;DHT22;17702;47.590;7.666;2022-11-25T11:48:59;10.30;99.90
31038;DHT22;17702;47.590;7.666;2022-11-25T11:54:09;10.40;99.90
31038;DHT22;17702;47.590;7.666;2022-11-25T11:56:37;10.40;99.90
31038;DHT22;17702;47.590;7.666;2022-11-25T12:01:58;10.30;99.90
31038;DHT22;17702;47.590;7.666;2022-11-25T12:06:55;10.40;99.90
31038;DHT22;17702;47.590;7.666;2022-11-25T12:09:22;10.40;99.90
31038;DHT22;17702;47.590;7.666;2022-11-25T12:11:51;10.40;99.90
31038;DHT22;17702;47.590;7.666;2022-11-25T12:16:45;10.50;99.90
31038;DHT22;17702;47.590;7.666;2022-11-25T12:19:22;10.40;99.90
31038;DHT22;17702;47.590;7.666;2022-11-25T12:29:44;10.80;99.90
31038;DHT22;17702;47.590;7.666;2022-11-25T12:34:40;10.80;99.90
31038;DHT22;17702;47.590;7.666;2022-11-25T12:37:11;10.80;99.90
31038;DHT22;17702;47.590;7.666;2022-11-25T12:40:11;10.80;99.90
31038;DHT22;17702;47.590;7.666;2022-11-25T12:42:29;10.90;99.90
31038;DHT22;17702;47.590;7.666;2022-11-25T12:45:04;10.90;99.90
31038;DHT22;17702;47.590;7.666;2022-11-25T12:47:31;10.90;99.90
31038;DHT22;17702;47.590;7.666;2022-11-25T12:49:56;10.90;99.90
31038;DHT22;17702;47.590;7.666;2022-11-25T12:54:59;10.90;99.90
31038;DHT22;17702;47.590;7.666;2022-11-25T12:57:40;10.90;99.90
31038;DHT22;17702;47.590;7.666;2022-11-25T13:00:11;10.90;99.90
31038;DHT22;17702;47.590;7.666;2022-11-25T13:10:31;11.00;99.90
31038;DHT22;17702;47.590;7.666;2022-11-25T13:13:09;11.00;99.90
31038;DHT22;17702;47.590;7.666;2022-11-25T13:15:40;11.00;99.90
31038;DHT22;17702;47.590;7.666;2022-11-25T13:18:10;11.00;99.90
31038;DHT22;17702;47.590;7.666;2022-11-25T13:20:43;11.00;99.90
31038;DHT22;17702;47.590;7.666;2022-11-25T13:25:36;11.10;99.90
31038;DHT22;17702;47.590;7.666;2022-11-25T13:28:26;11.10;99.90
31038;DHT22;17702;47.590;7.666;2022-11-25T13:30:47;11.00;99.90
31038;DHT22;17702;47.590;7.666;2022-11-25T13:35:54;11.10;99.90
31038;DHT22;17702;47.590;7.666;2022-11-25T13:40:55;11.10;99.90
31038;DHT22;17702;47.590;7.666;2022-11-25T13:43:21;11.20;99.90
31038;DHT22;17702;47.590;7.666;2022-11-25T13:45:47;11.20;99.90
31038;DHT22;17702;47.590;7.666;2022-11-25T13:50:41;11.30;99.90
31038;DHT22;17702;47.590;7.666;2022-11-25T13:53:29;11.30;99.90
31038;DHT22;17702;47.590;7.666;2022-11-25T13:55:54;11.40;99.90
31038;DHT22;17702;47.590;7.666;2022-11-25T13:58:36;11.40;99.90
31038;DHT22;17702;47.590;7.666;2022-11-25T14:01:19;11.50;99.90
31038;DHT22;17702;47.590;7.666;2022-11-25T14:03:45;11.40;99.90
31038;DHT22;17702;47.590;7.666;2022-11-25T14:09:01;11.40;99.90
31038;DHT22;17702;47.590;7.666;2022-11-25T14:16:42;11.50;99.90
31038;DHT22;17702;47.590;7.666;2022-11-25T14:21:42;11.50;99.90
31038;DHT22;17702;47.590;7.666;2022-11-25T14:26:45;11.50;99.90
31038;DHT22;17702;47.590;7.666;2022-11-25T14:31:46;11.40;99.90
31038;DHT22;17702;47.590;7.666;2022-11-25T14:34:16;11.40;99.90
31038;DHT22;17702;47.590;7.666;2022-11-25T14:36:51;11.40;99.90
31038;DHT22;17702;47.590;7.666;2022-11-25T14:39:21;11.40;99.90
31038;DHT22;17702;47.590;7.666;2022-11-25T14:41:55;11.40;99.90
31038;DHT22;17702;47.590;7.666;2022-11-25T14:44:23;11.40;99.90
31038;DHT22;17702;47.590;7.666;2022-11-25T14:46:53;11.30;99.90
31038;DHT22;17702;47.590;7.666;2022-11-25T14:49:18;11.30;99.90
31038;DHT22;17702;47.590;7.666;2022-11-25T14:51:46;11.30;99.90
31038;DHT22;17702;47.590;7.666;2022-11-25T14:54:12;11.30;99.90
31038;DHT22;17702;47.590;7.666;2022-11-25T14:56:39;11.20;99.90
31038;DHT22;17702;47.590;7.666;2022-11-25T14:59:06;11.20;99.90
31038;DHT22;17702;47.590;7.666;2022-11-25T15:01:33;11.20;99.90
31038;DHT22;17702;47.590;7.666;2022-11-25T15:04:03;11.10;99.90
31038;DHT22;17702;47.590;7.666;2022-11-25T15:06:33;11.00;99.90
31038;DHT22;17702;47.590;7.666;2022-11-25T15:08:58;10.90;99.90
31038;DHT22;17702;47.590;7.666;2022-11-25T15:11:25;10.80;99.90
31038;DHT22;17702;47.590;7.666;2022-11-25T15:16:18;10.80;99.90
31038;DHT22;17702;47.590;7.666;2022-11-25T15:18:54;10.70;99.90
31038;DHT22;17702;47.590;7.666;2022-11-25T15:21:28;10.70;99.90
31038;DHT22;17702;47.590;7.666;2022-11-25T15:23:54;10.60;99.90
31038;DHT22;17702;47.590;7.666;2022-11-25T15:26:23;10.50;99.90
31038;DHT22;17702;47.590;7.666;2022-11-25T15:28:53;10.50;99.90
31038;DHT22;17702;47.590;7.666;2022-11-25T15:31:20;10.40;99.90
31038;DHT22;17702;47.590;7.666;2022-11-25T15:33:46;10.40;99.90
31038;DHT22;17702;47.590;7.666;2022-11-25T15:36:14;10.40;99.90
31038;DHT22;17702;47.590;7.666;2022-11-25T15:38:44;10.40;99.90
31038;DHT22;17702;47.590;7.666;2022-11-25T15:43:43;10.30;99.90
31038;DHT22;17702;47.590;7.666;2022-11-25T15:46:10;10.30;99.90
31038;DHT22;17702;47.590;7.666;2022-11-25T15:48:39;10.30;99.90
31038;DHT22;17702;47.590;7.666;2022-11-25T15:51:13;10.20;99.90
31038;DHT22;17702;47.590;7.666;2022-11-25T15:53:41;10.30;99.90
31038;DHT22;17702;47.590;7.666;2022-11-25T15:56:08;10.30;99.90
31038;DHT22;17702;47.590;7.666;2022-11-25T15:58:36;10.20;99.90
31038;DHT22;17702;47.590;7.666;2022-11-25T16:03:41;10.10;99.90
31038;DHT22;17702;47.590;7.666;2022-11-25T16:06:24;10.00;99.90
31038;DHT22;17702;47.590;7.666;2022-11-25T16:08:51;9.90;99.90
31038;DHT22;17702;47.590;7.666;2022-11-25T16:11:17;9.90;99.90
31038;DHT22;17702;47.590;7.666;2022-11-25T16:13:44;9.90;99.90
31038;DHT22;17702;47.590;7.666;2022-11-25T16:18:40;9.80;99.90
31038;DHT22;17702;47.590;7.666;2022-11-25T16:21:11;9.70;99.90
31038;DHT22;17702;47.590;7.666;2022-11-25T16:23:38;9.70;99.90
31038;DHT22;17702;47.590;7.666;2022-11-25T16:28:36;9.60;99.90
31038;DHT22;17702;47.590;7.666;2022-11-25T16:31:01;9.50;99.90
31038;DHT22;17702;47.590;7.666;2022-11-25T16:33:27;9.50;99.90
31038;DHT22;17702;47.590;7.666;2022-11-25T16:35:52;9.40;99.90
31038;DHT22;17702;47.590;7.666;2022-11-25T16:38:18;9.30;99.90
31038;DHT22;17702;47.590;7.666;2022-11-25T16:40:43;9.40;99.90
31038;DHT22;17702;47.590;7.666;2022-11-25T16:43:15;9.30;99.90
31038;DHT22;17702;47.590;7.666;2022-11-25T16:45:41;9.20;99.90
31038;DHT22;17702;47.590;7.666;2022-11-25T16:48:13;9.20;99.90
31038;DHT22;17702;47.590;7.666;2022-11-25T16:50:40;9.00;99.90
31038;DHT22;17702;47.590;7.666;2022-11-25T16:53:05;8.90;99.90
31038;DHT22;17702;47.590;7.666;2022-11-25T16:55:30;8.90;99.90
31038;DHT22;17702;47.590;7.666;2022-11-25T16:57:56;8.80;99.90
31038;DHT22;17702;47.590;7.666;2022-11-25T17:00:22;8.80;99.90
31038;DHT22;17702;47.590;7.666;2022-11-25T17:02:48;8.60;99.90
31038;DHT22;17702;47.590;7.666;2022-11-25T17:05:18;8.60;99.90
31038;DHT22;17702;47.590;7.666;2022-11-25T17:07:44;8.50;99.90
31038;DHT22;17702;47.590;7.666;2022-11-25T17:10:10;8.40;99.90
31038;DHT22;17702;47.590;7.666;2022-11-25T17:12:35;8.30;99.90
31038;DHT22;17702;47.590;7.666;2022-11-25T17:15:02;8.30;99.90
31038;DHT22;17702;47.590;7.666;2022-11-25T17:17:28;8.30;99.90
31038;DHT22;17702;47.590;7.666;2022-11-25T17:19:54;8.20;99.90
31038;DHT22;17702;47.590;7.666;2022-11-25T17:22:21;8.20;99.90
31038;DHT22;17702;47.590;7.666;2022-11-25T17:24:47;8.20;99.90
31038;DHT22;17702;47.590;7.666;2022-11-25T17:27:33;8.20;99.90
31038;DHT22;17702;47.590;7.666;2022-11-25T17:29:59;8.30;99.90
31038;DHT22;17702;47.590;7.666;2022-11-25T17:32:25;8.40;99.90
31038;DHT22;17702;47.590;7.666;2022-11-25T17:34:51;8.50;99.90
31038;DHT22;17702;47.590;7.666;2022-11-25T17:37:20;8.50;99.90
31038;DHT22;17702;47.590;7.666;2022-11-25T17:39:47;8.60;99.90